Time;durP1;ratioP1;P1;durP2;ratioP2;P2;SDS_P1;SDS_P2;PMS_P1;PMS_P2;Temp;Humidity;BMP_temperature;BMP_pressure;BME280_temperature;BME280_humidity;BME280_pressure;Samples;Min_cycle;Max_cycle;Signal;HPM_P1;HPM_P2
2023/01/13 00:06:24;;;;;;;1.60;0.60;;;20.70;99.90;;;;;;2612302;54;20482;-73
2023/01/13 00:12:11;;;;;;;1.90;0.87;;;20.70;99.90;;;;;;2613841;54;20395;-72
2023/01/13 00:17:59;;;;;;;1.57;0.63;;;20.60;99.90;;;;;;2611769;54;20158;-75
2023/01/13 00:23:47;;;;;;;1.70;0.80;;;20.50;99.90;;;;;;2614726;54;20254;-73
2023/01/13 00:29:35;;;;;;;4.80;1.33;;;20.30;99.90;;;;;;2612254;54;20419;-71
2023/01/13 00:35:23;;;;;;;2.43;0.80;;;20.30;99.90;;;;;;2611925;54;20259;-72
2023/01/13 00:41:16;;;;;;;3.10;1.47;;;20.10;99.90;;;;;;2614199;39;20536;-73
2023/01/13 00:47:04;;;;;;;5.43;0.90;;;20.10;99.90;;;;;;2610907;54;20403;-72
2023/01/13 00:52:51;;;;;;;5.00;1.30;;;20.00;99.90;;;;;;2613803;54;20166;-71
2023/01/13 00:58:39;;;;;;;2.27;0.90;;;19.90;99.90;;;;;;2614109;54;20130;-72
2023/01/13 01:08:49;;;;;;;4.97;1.33;;;19.60;99.90;;;;;;2613372;54;20480;-72
2023/01/13 01:14:37;;;;;;;4.17;1.37;;;19.80;99.90;;;;;;2611245;54;20371;-71
2023/01/13 01:20:24;;;;;;;2.07;0.93;;;19.30;99.90;;;;;;2613526;54;20126;-72
2023/01/13 01:26:18;;;;;;;7.40;2.13;;;19.30;99.90;;;;;;2614675;54;20231;-72
2023/01/13 01:32:06;;;;;;;9.67;1.50;;;19.20;99.90;;;;;;2612464;54;20511;-71
2023/01/13 01:37:54;;;;;;;6.47;1.60;;;18.90;99.90;;;;;;2614696;39;20567;-69
2023/01/13 01:44:24;;;;;;;7.30;1.57;;;18.80;99.90;;;;;;2614423;54;20175;-71
2023/01/13 01:50:11;;;;;;;10.00;2.30;;;18.50;99.90;;;;;;2614302;54;20420;-72
2023/01/13 01:56:00;;;;;;;6.03;1.80;;;18.20;99.90;;;;;;2613921;54;20138;-70
2023/01/13 02:01:48;;;;;;;4.97;2.00;;;18.00;99.90;;;;;;2613660;54;20456;-72
2023/01/13 02:04:19;;;;;;;17.13;3.30;;;18.00;99.90;;;;;;2610725;46;20436;-70
2023/01/13 02:06:46;;;;;;;15.57;2.77;;;17.90;99.90;;;;;;2612845;47;20150;-70
2023/01/13 02:12:35;;;;;;;7.97;2.27;;;17.40;99.90;;;;;;2614145;39;20794;-70
2023/01/13 02:37:42;;;;;;;14.07;2.53;;;16.10;99.90;;;;;;2613811;39;20747;-68
2023/01/13 02:49:51;;;;;;;6.07;2.33;;;14.80;99.90;;;;;;2610817;54;20399;-70
2023/01/13 02:55:49;;;;;;;6.00;2.43;;;13.80;99.90;;;;;;2613367;39;20784;-70
2023/01/13 03:01:37;;;;;;;5.60;1.90;;;12.80;99.90;;;;;;2611490;54;20383;-70
2023/01/13 03:18:39;;;;;;;12.10;2.47;;;11.20;99.90;;;;;;2610720;54;20421;-70
2023/01/13 03:37:02;;;;;;;11.00;2.67;;;8.70;99.90;;;;;;2611981;54;20446;-70
2023/01/13 03:49:28;;;;;;;14.60;2.27;;;8.30;99.90;;;;;;2611725;54;20384;-71
2023/01/13 03:55:21;;;;;;;6.03;2.50;;;8.20;99.90;;;;;;2612935;54;20391;-70
2023/01/13 04:01:14;;;;;;;9.53;2.70;;;8.10;99.90;;;;;;2611629;54;20436;-72
2023/01/13 04:15:01;;;;;;;7.23;2.50;;;8.30;99.90;;;;;;2611784;54;20399;-70
2023/01/13 04:20:50;;;;;;;6.30;2.20;;;8.20;99.90;;;;;;2612731;54;21035;-69
2023/01/13 04:26:38;;;;;;;4.57;2.10;;;8.20;99.90;;;;;;2613947;54;20414;-70
2023/01/13 04:32:26;;;;;;;4.80;1.97;;;8.10;99.90;;;;;;2612127;39;21017;-71
2023/01/13 04:38:15;;;;;;;5.77;1.70;;;8.50;99.90;;;;;;2611837;39;20845;-70
2023/01/13 04:44:03;;;;;;;6.03;2.47;;;8.50;99.90;;;;;;2615111;54;20386;-71
2023/01/13 04:49:50;;;;;;;9.93;3.57;;;8.60;99.90;;;;;;2614044;54;20628;-70
2023/01/13 04:55:38;;;;;;;8.67;3.40;;;8.60;99.90;;;;;;2613767;39;20554;-70
2023/01/13 05:01:26;;;;;;;5.60;2.47;;;8.60;99.90;;;;;;2615081;54;20625;-70
2023/01/13 05:04:16;;;;;;;5.43;2.23;;;8.70;99.90;;;;;;2612013;54;20514;-70
2023/01/13 05:06:42;;;;;;;10.53;2.80;;;8.70;99.90;;;;;;2613499;47;20159;-70
2023/01/13 05:18:36;;;;;;;11.63;2.90;;;8.40;99.90;;;;;;2614977;54;20374;-70
2023/01/13 05:30:34;;;;;;;15.93;3.80;;;8.50;99.90;;;;;;2614756;54;20415;-71
2023/01/13 05:36:22;;;;;;;10.50;3.00;;;8.50;99.90;;;;;;2615059;54;20945;-71
2023/01/13 05:48:19;;;;;;;3.60;1.80;;;8.50;99.90;;;;;;2612578;54;20411;-71
2023/01/13 05:54:06;;;;;;;14.80;4.07;;;8.40;99.90;;;;;;2614863;54;20477;-69
2023/01/13 05:59:54;;;;;;;5.77;2.60;;;8.40;99.90;;;;;;2613419;54;20180;-71
2023/01/13 06:09:04;;;;;;;9.30;3.43;;;8.40;99.90;;;;;;2614263;54;20429;-71
2023/01/13 06:14:52;;;;;;;5.70;2.67;;;8.50;99.90;;;;;;2614745;54;20193;-71
2023/01/13 06:20:39;;;;;;;9.10;4.40;;;8.50;99.90;;;;;;2615227;39;20539;-70
2023/01/13 06:26:30;;;;;;;18.33;3.93;;;8.60;99.90;;;;;;2612165;54;20616;-71
2023/01/13 06:32:23;;;;;;;10.80;2.73;;;8.50;99.90;;;;;;2614428;54;20427;-74
2023/01/13 06:38:15;;;;;;;5.20;2.83;;;8.40;99.90;;;;;;2614409;54;20363;-70
2023/01/13 06:44:02;;;;;;;7.17;2.60;;;8.40;99.90;;;;;;2614892;54;20395;-71
2023/01/13 06:49:53;;;;;;;7.17;3.00;;;8.40;99.90;;;;;;2614510;54;20162;-69
2023/01/13 06:55:40;;;;;;;16.13;3.30;;;8.40;99.90;;;;;;2614180;54;20434;-71
2023/01/13 07:01:28;;;;;;;12.57;3.30;;;8.30;99.90;;;;;;2614469;54;20165;-70
2023/01/13 07:07:33;;;;;;;5.47;3.00;;;8.10;99.90;;;;;;2611673;54;20454;-71
2023/01/13 07:19:27;;;;;;;4.23;2.30;;;8.20;99.90;;;;;;2614334;54;20382;-71
2023/01/13 07:25:14;;;;;;;10.53;2.80;;;8.20;99.90;;;;;;2613230;54;20391;-70
2023/01/13 07:31:02;;;;;;;8.93;3.93;;;8.10;99.90;;;;;;2614103;54;20204;-70
2023/01/13 07:36:49;;;;;;;10.67;3.20;;;8.10;99.90;;;;;;2612646;54;20465;-69
2023/01/13 07:48:46;;;;;;;8.00;3.70;;;8.10;99.90;;;;;;2614469;54;20416;-71
2023/01/13 07:54:34;;;;;;;11.80;3.30;;;8.20;99.90;;;;;;2615210;54;20419;-71
2023/01/13 08:00:22;;;;;;;8.27;2.80;;;8.20;99.90;;;;;;2614825;54;20179;-69
2023/01/13 08:09:32;;;;;;;10.37;3.67;;;8.50;99.90;;;;;;2614922;54;20475;-68
2023/01/13 08:15:20;;;;;;;12.93;3.77;;;8.60;99.90;;;;;;2615345;54;20119;-69
2023/01/13 08:21:14;;;;;;;8.87;3.50;;;8.60;99.90;;;;;;2615054;54;20665;-70
2023/01/13 08:27:02;;;;;;;7.87;3.20;;;8.60;99.90;;;;;;2614944;54;20371;-71
2023/01/13 08:32:49;;;;;;;7.87;4.87;;;8.60;99.90;;;;;;2614008;54;20138;-68
2023/01/13 08:38:37;;;;;;;10.70;3.67;;;8.70;99.90;;;;;;2614865;54;20139;-70
2023/01/13 08:44:27;;;;;;;6.63;3.40;;;8.70;99.90;;;;;;2615262;54;20396;-72
2023/01/13 08:50:15;;;;;;;5.20;4.40;;;8.70;99.90;;;;;;2615132;39;20713;-70
2023/01/13 08:56:10;;;;;;;12.80;5.53;;;8.70;99.90;;;;;;2614977;54;20440;-70
2023/01/13 09:01:57;;;;;;;4.67;3.40;;;8.70;99.90;;;;;;2614936;54;20419;-70
2023/01/13 09:05:05;;;;;;;5.70;3.80;;;8.70;99.90;;;;;;2614107;54;20424;-69
2023/01/13 09:07:34;;;;;;;11.50;4.73;;;8.70;99.90;;;;;;2613908;54;20155;-69
2023/01/13 09:13:22;;;;;;;11.67;3.27;;;8.70;99.90;;;;;;2615141;54;20428;-68
2023/01/13 09:19:09;;;;;;;6.90;3.20;;;8.70;99.90;;;;;;2613203;54;20150;-69
2023/01/13 09:24:57;;;;;;;5.80;4.00;;;8.70;99.90;;;;;;2614346;54;21194;-72
2023/01/13 09:30:45;;;;;;;8.80;4.43;;;8.80;99.90;;;;;;2614835;54;20143;-70
2023/01/13 09:36:32;;;;;;;9.20;4.67;;;8.90;99.90;;;;;;2614950;54;20129;-70
2023/01/13 09:48:51;;;;;;;11.73;5.60;;;9.30;99.90;;;;;;2613609;54;20495;-71
2023/01/13 10:05:03;;;;;;;13.50;5.03;;;9.30;99.90;;;;;;2614980;54;20403;-70
2023/01/13 10:07:33;;;;;;;7.80;4.23;;;9.30;99.90;;;;;;2613776;54;20432;-68
2023/01/13 10:13:29;;;;;;;13.60;4.80;;;9.30;99.90;;;;;;2614059;54;20465;-70
2023/01/13 10:25:46;;;;;;;10.03;6.20;;;9.50;99.90;;;;;;2614870;54;20383;-70
2023/01/13 10:31:34;;;;;;;19.57;5.83;;;9.90;99.90;;;;;;2614592;54;20427;-69
2023/01/13 10:37:27;;;;;;;9.03;4.83;;;9.70;99.90;;;;;;2614990;54;20152;-70
2023/01/13 10:43:14;;;;;;;20.73;6.83;;;10.10;99.90;;;;;;2614660;54;20431;-68
2023/01/13 10:55:36;;;;;;;10.53;5.50;;;11.90;99.90;;;;;;2615251;39;20755;-68
2023/01/13 11:01:25;;;;;;;11.90;5.80;;;12.20;88.00;;;;;;2615132;54;20524;-69
2023/01/13 11:14:31;;;;;;;8.93;6.37;;;10.10;99.90;;;;;;2613401;54;20524;-70
2023/01/13 11:30:36;;;;;;;11.90;5.87;;;9.80;99.90;;;;;;2611842;54;20455;-68
2023/01/13 11:43:18;;;;;;;10.30;6.60;;;8.60;99.90;;;;;;2613713;54;20415;-71
2023/01/13 11:49:05;;;;;;;12.93;6.10;;;8.70;99.90;;;;;;2613394;54;20414;-69
2023/01/13 12:14:52;;;;;;;10.97;6.63;;;8.90;99.90;;;;;;2613488;54;20498;-70
2023/01/13 12:27:12;;;;;;;5.33;3.40;;;8.30;99.90;;;;;;2613586;31;20808;-72
2023/01/13 12:39:58;;;;;;;8.23;3.50;;;8.40;99.90;;;;;;2614403;54;20391;-73
2023/01/13 12:45:46;;;;;;;10.63;2.90;;;8.40;99.90;;;;;;2614775;54;20366;-70
2023/01/13 12:51:37;;;;;;;11.73;3.43;;;8.50;99.90;;;;;;2612502;54;21197;-72
2023/01/13 12:57:26;;;;;;;7.27;3.10;;;10.00;99.90;;;;;;2614722;54;20374;-71
2023/01/13 13:09:51;;;;;;;7.93;2.50;;;9.90;99.90;;;;;;2613424;39;20936;-71
2023/01/13 13:15:39;;;;;;;6.87;2.70;;;12.30;99.90;;;;;;2613235;54;20427;-71
2023/01/13 13:28:17;;;;;;;5.83;2.70;;;9.00;99.90;;;;;;2611992;54;20407;-72
2023/01/13 13:46:46;;;;;;;9.43;3.03;;;8.80;99.90;;;;;;2613440;54;20395;-70
2023/01/13 13:58:54;;;;;;;6.90;2.93;;;9.00;99.90;;;;;;2615201;54;20411;-70
2023/01/13 14:04:42;;;;;;;13.10;3.00;;;8.90;99.90;;;;;;2612694;54;20399;-71
2023/01/13 14:10:32;;;;;;;8.60;3.43;;;8.80;99.90;;;;;;2612455;54;20163;-69
2023/01/13 14:16:20;;;;;;;10.57;3.50;;;8.70;99.90;;;;;;2612485;54;20952;-70
2023/01/13 14:22:15;;;;;;;7.67;3.07;;;8.60;99.90;;;;;;2614108;54;20253;-70
2023/01/13 14:34:42;;;;;;;7.83;2.80;;;8.50;99.90;;;;;;2613426;54;20953;-70
2023/01/13 14:40:35;;;;;;;11.10;3.17;;;8.40;99.90;;;;;;2610301;54;21215;-72
2023/01/13 14:46:24;;;;;;;9.63;5.03;;;8.20;99.90;;;;;;2614412;54;20540;-70
2023/01/13 14:52:16;;;;;;;13.73;3.93;;;8.20;99.90;;;;;;2611834;54;20391;-70
2023/01/13 14:58:22;;;;;;;9.60;3.47;;;8.20;99.90;;;;;;2612039;54;20519;-70
2023/01/13 15:10:52;;;;;;;15.00;4.90;;;8.00;99.90;;;;;;2612185;54;20414;-69
2023/01/13 15:16:40;;;;;;;16.47;5.70;;;7.90;99.90;;;;;;2612352;54;20375;-71
2023/01/13 15:22:28;;;;;;;19.77;4.83;;;7.60;99.90;;;;;;2613834;54;20254;-72
2023/01/13 15:28:24;;;;;;;11.20;4.40;;;7.60;99.90;;;;;;2614257;54;20163;-71
2023/01/13 15:34:11;;;;;;;17.13;6.87;;;7.70;99.90;;;;;;2615059;54;20403;-71
2023/01/13 15:39:59;;;;;;;23.77;7.03;;;7.70;99.90;;;;;;2613299;54;20201;-70
2023/01/13 15:51:54;;;;;;;11.77;4.83;;;8.10;99.90;;;;;;2615292;54;20370;-71
2023/01/13 15:57:47;;;;;;;6.50;3.73;;;8.30;99.90;;;;;;2614073;54;20151;-70
2023/01/13 16:03:35;;;;;;;13.80;3.83;;;8.20;99.90;;;;;;2614825;54;20399;-70
2023/01/13 16:09:23;;;;;;;7.13;2.60;;;8.40;99.90;;;;;;2614448;54;20277;-71
2023/01/13 16:15:15;;;;;;;11.13;4.20;;;8.40;99.90;;;;;;2613497;46;20153;-72
2023/01/13 16:21:03;;;;;;;8.20;4.70;;;8.40;99.90;;;;;;2613831;54;20442;-69
2023/01/13 16:26:51;;;;;;;11.20;3.53;;;8.30;99.90;;;;;;2613301;54;20122;-71
2023/01/13 16:32:39;;;;;;;7.73;3.40;;;8.50;99.90;;;;;;2613575;54;20143;-70
2023/01/13 16:38:32;;;;;;;10.87;3.10;;;8.40;99.90;;;;;;2614687;54;20130;-71
2023/01/13 16:44:20;;;;;;;10.03;3.30;;;8.20;99.90;;;;;;2615586;54;20356;-71
2023/01/13 16:56:40;;;;;;;12.63;4.67;;;7.80;99.90;;;;;;2614562;54;21319;-71
2023/01/13 17:02:28;;;;;;;14.70;4.73;;;7.80;99.90;;;;;;2615053;54;20238;-72
2023/01/13 17:05:05;;;;;;;10.33;3.87;;;7.90;99.90;;;;;;2614333;54;20420;-72
2023/01/13 17:07:31;;;;;;;16.53;5.43;;;8.00;99.90;;;;;;2613583;47;20162;-71
2023/01/13 17:13:19;;;;;;;8.20;3.30;;;8.10;99.90;;;;;;2615085;54;20379;-70
2023/01/13 17:19:09;;;;;;;8.00;3.60;;;8.00;99.90;;;;;;2614174;54;20415;-71
2023/01/13 17:24:56;;;;;;;11.23;4.47;;;8.00;99.90;;;;;;2615219;46;20426;-71
2023/01/13 17:30:44;;;;;;;4.10;2.10;;;8.00;99.90;;;;;;2614704;54;20122;-71
2023/01/13 17:36:32;;;;;;;13.70;3.17;;;8.20;99.90;;;;;;2614010;54;20183;-72
2023/01/13 17:42:20;;;;;;;13.53;5.37;;;8.10;99.90;;;;;;2614068;54;20229;-71
2023/01/13 17:48:08;;;;;;;9.90;4.20;;;8.10;99.90;;;;;;2614174;54;20174;-70
2023/01/13 17:53:55;;;;;;;7.63;3.17;;;8.10;99.90;;;;;;2614949;54;20134;-70
2023/01/13 17:59:45;;;;;;;18.83;3.80;;;8.10;99.90;;;;;;2614142;54;20130;-72
2023/01/13 18:09:35;;;;;;;13.77;3.73;;;8.20;99.90;;;;;;2615141;54;20403;-71
2023/01/13 18:15:26;;;;;;;13.33;3.70;;;8.30;99.90;;;;;;2613225;54;20433;-70
2023/01/13 18:33:52;;;;;;;6.20;3.90;;;8.40;99.90;;;;;;2614413;54;20379;-70
2023/01/13 18:39:40;;;;;;;13.77;4.47;;;8.50;99.90;;;;;;2616480;39;20710;-70
2023/01/13 18:45:29;;;;;;;7.97;3.33;;;8.40;99.90;;;;;;2613490;46;20414;-71
2023/01/13 18:51:17;;;;;;;6.27;3.30;;;8.40;99.90;;;;;;2612201;54;21157;-70
2023/01/13 19:10:38;;;;;;;17.77;3.83;;;8.70;99.90;;;;;;2614785;54;20455;-70
2023/01/13 19:16:25;;;;;;;10.80;4.70;;;8.70;99.90;;;;;;2614884;54;20474;-71
2023/01/13 19:22:16;;;;;;;14.03;3.80;;;8.60;99.90;;;;;;2614263;46;20641;-69
2023/01/13 19:28:03;;;;;;;10.10;3.20;;;8.60;99.90;;;;;;2613042;54;20391;-70
2023/01/13 19:33:50;;;;;;;7.27;2.37;;;8.50;99.90;;;;;;2614794;46;20171;-69
2023/01/13 19:39:37;;;;;;;13.57;4.50;;;8.50;99.90;;;;;;2613877;54;21028;-71
2023/01/13 19:45:25;;;;;;;8.10;3.13;;;8.50;99.90;;;;;;2615319;54;20270;-71
2023/01/13 19:51:13;;;;;;;12.60;3.63;;;8.60;99.90;;;;;;2614529;54;20162;-71
2023/01/13 19:57:01;;;;;;;10.00;3.80;;;8.70;99.90;;;;;;2614938;54;20387;-70
2023/01/13 20:02:51;;;;;;;5.90;3.10;;;8.70;99.90;;;;;;2614951;39;20541;-70
2023/01/13 20:08:40;;;;;;;12.77;3.70;;;8.70;99.90;;;;;;2614950;54;20964;-69
2023/01/13 20:14:28;;;;;;;8.43;3.60;;;8.70;99.90;;;;;;2615069;39;20748;-70
2023/01/13 20:20:17;;;;;;;8.33;3.17;;;8.70;99.90;;;;;;2613576;54;20130;-72
2023/01/13 20:26:07;;;;;;;8.07;2.70;;;8.60;99.90;;;;;;2612928;39;20800;-70
2023/01/13 20:31:55;;;;;;;13.23;3.17;;;8.60;99.90;;;;;;2613183;54;20432;-72
2023/01/13 20:37:43;;;;;;;9.80;2.60;;;8.70;99.90;;;;;;2614153;54;20407;-72
2023/01/13 20:43:31;;;;;;;12.90;3.93;;;8.60;99.90;;;;;;2615122;54;20151;-70
2023/01/13 20:49:19;;;;;;;9.43;3.67;;;8.70;99.90;;;;;;2615182;31;20611;-70
2023/01/13 20:55:07;;;;;;;15.43;3.90;;;8.50;99.90;;;;;;2615636;39;20745;-71
2023/01/13 21:00:58;;;;;;;7.20;2.33;;;8.30;99.90;;;;;;2614394;54;20403;-70
2023/01/13 21:10:10;;;;;;;8.90;3.17;;;8.20;99.90;;;;;;2614804;54;20435;-70
2023/01/13 21:15:57;;;;;;;8.50;3.60;;;8.20;99.90;;;;;;2615514;39;20785;-70
2023/01/13 21:21:45;;;;;;;18.43;4.50;;;8.10;99.90;;;;;;2614252;54;20130;-71
2023/01/13 21:27:33;;;;;;;16.87;4.50;;;8.20;99.90;;;;;;2614828;54;20153;-69
2023/01/13 21:33:21;;;;;;;13.83;3.40;;;8.20;99.90;;;;;;2613594;54;20134;-71
2023/01/13 21:39:09;;;;;;;10.70;4.07;;;8.30;99.90;;;;;;2614937;54;20526;-71
2023/01/13 21:51:03;;;;;;;16.77;4.27;;;8.30;99.90;;;;;;2612863;54;20419;-70
2023/01/13 21:56:51;;;;;;;19.23;5.63;;;8.20;99.90;;;;;;2615171;54;20387;-70
2023/01/13 22:02:38;;;;;;;11.83;3.50;;;8.20;99.90;;;;;;2614673;54;20126;-69
2023/01/13 22:05:38;;;;;;;15.90;4.50;;;8.20;99.90;;;;;;2615132;39;21190;-69
2023/01/13 22:08:04;;;;;;;16.70;4.97;;;8.10;99.90;;;;;;2614711;54;20174;-69
2023/01/13 22:20:00;;;;;;;16.63;4.47;;;8.00;99.90;;;;;;2612405;54;20434;-70
2023/01/13 22:25:50;;;;;;;15.50;5.70;;;8.10;99.90;;;;;;2613482;54;20406;-72
2023/01/13 22:31:37;;;;;;;7.90;3.70;;;8.20;99.90;;;;;;2612898;54;20399;-69
2023/01/13 22:37:25;;;;;;;14.27;4.90;;;8.20;99.90;;;;;;2614409;39;20548;-70
2023/01/13 22:43:13;;;;;;;7.90;3.27;;;8.20;99.90;;;;;;2613836;54;20154;-69
2023/01/13 22:49:01;;;;;;;15.23;5.60;;;8.30;99.90;;;;;;2614776;54;20186;-68
2023/01/13 22:54:51;;;;;;;8.77;4.10;;;8.30;99.90;;;;;;2615005;54;20129;-70
2023/01/13 23:00:39;;;;;;;17.17;4.70;;;8.40;99.90;;;;;;2612780;39;20931;-71
2023/01/13 23:10:10;;;;;;;11.10;4.20;;;8.30;99.90;;;;;;2614784;54;20964;-70
2023/01/13 23:16:06;;;;;;;11.07;3.07;;;8.30;99.90;;;;;;2615404;54;20929;-71
2023/01/13 23:21:54;;;;;;;7.27;3.90;;;8.30;99.90;;;;;;2615711;54;20403;-71
2023/01/13 23:27:41;;;;;;;18.60;6.30;;;8.30;99.90;;;;;;2615449;54;20139;-69
2023/01/13 23:33:29;;;;;;;12.77;4.77;;;8.40;99.90;;;;;;2615147;54;20130;-71
2023/01/13 23:39:17;;;;;;;11.53;4.80;;;8.30;99.90;;;;;;2614538;54;20718;-69
2023/01/13 23:45:05;;;;;;;13.47;5.30;;;8.30;99.90;;;;;;2614931;54;20222;-70
2023/01/13 23:51:00;;;;;;;18.40;5.47;;;8.20;99.90;;;;;;2615837;54;20379;-68
2023/01/13 23:56:49;;;;;;;20.97;5.87;;;8.10;99.90;;;;;;2615769;54;20387;-70
